Decoded Metar for LFPG (PARIS CHARLES DE GAULLE in FRANCE) (IATA:CDG) | Meteo·Mobile Aviation Weather
aviador You're here:

LFPG Decoded Metar

PARIS CHARLES DE GAULLE in FRANCE
Report Time2018-09-20 14:00:00
UTC Time2018-09-20 14:12:24
Flight Rules vfr VFR
Wind190° at 13 kt
W.Decomp.*RWY 26: 4.7 kt HW 12.1 kt LCW
RWY 27: 2.5 kt HW 12.8 kt LCW
W.Rank190° ranks 7
Current wind is above 190° avg. (8.9)
Visibility9999 m
Phenomena:N/A
Clouds:N/A
Expected CloudBase > 4,800 ft AGL from Temp-Dew spread
CeilingNone
Temp25°C (ISA +11)
Dew Point13°C (47% RH)
AAT21.2°C
QNH1016 hPa
Density Alt1,699 ft
Elevation358 ft
Report Wrong Elevation
Raw Report
LFPG 201400Z 19013KT CAVOK 25/13 Q1016 NOSIG=

Extra information for LFPG:More info

Metar Taf Metar & Taf Last 4 Metars F.Rules Stats Wind Profile Meteogram Temp Stats Airport Information Weather charts Add Link Nearby VenuesMetar ALERT Operation Metar Decoded Social comments